createdAt,value
2022-11-18T00:02:09.380Z,17.45
2022-11-18T00:04:42.824Z,16.48
2022-11-18T00:07:11.327Z,13.23
2022-11-18T00:09:46.295Z,13.10
2022-11-18T00:12:33.223Z,14.40
2022-11-18T00:15:12.504Z,15.02
2022-11-18T00:17:50.973Z,14.25
2022-11-18T00:20:19.517Z,15.02
2022-11-18T00:22:47.922Z,28.52
2022-11-18T00:25:16.343Z,100.57
2022-11-18T00:27:44.783Z,81.13
2022-11-18T00:30:23.277Z,46.55
2022-11-18T00:33:01.711Z,72.75
2022-11-18T00:35:30.191Z,112.82
2022-11-18T00:37:58.639Z,73.05
2022-11-18T00:40:27.075Z,71.18
2022-11-18T00:42:56.675Z,101.75
2022-11-18T00:45:25.209Z,98.30
2022-11-18T00:47:53.597Z,80.90
2022-11-18T00:50:22.143Z,45.70
2022-11-18T00:52:50.544Z,17.13
2022-11-18T00:55:18.899Z,19.13
2022-11-18T00:57:47.259Z,16.75
2022-11-18T01:00:15.867Z,20.27
2022-11-18T01:02:49.024Z,19.48
2022-11-18T01:05:17.519Z,27.65
2022-11-18T01:07:46.402Z,31.70
2022-11-18T01:10:14.894Z,18.75
2022-11-18T01:13:02.144Z,13.65
2022-11-18T01:15:30.607Z,17.20
2022-11-18T01:17:59.023Z,15.15
2022-11-18T01:20:33.107Z,12.52
2022-11-18T01:23:01.781Z,13.35
2022-11-18T01:25:30.379Z,14.23
2022-11-18T01:27:58.845Z,16.50
2022-11-18T01:30:27.216Z,15.27
2022-11-18T01:33:00.831Z,13.32
2022-11-18T01:35:29.298Z,12.23
2022-11-18T01:37:57.671Z,16.25
2022-11-18T01:40:27.493Z,13.25
2022-11-18T01:42:55.962Z,13.60
2022-11-18T01:45:33.381Z,12.88
2022-11-18T01:48:14.419Z,12.15
2022-11-18T01:50:48.210Z,15.02
2022-11-18T01:53:19.393Z,13.77
2022-11-18T01:55:48.977Z,15.60
2022-11-18T01:58:20.952Z,14.63
2022-11-18T02:00:49.405Z,13.88
2022-11-18T02:03:18.281Z,13.15
2022-11-18T02:05:58.099Z,16.90
2022-11-18T02:08:26.835Z,16.50
2022-11-18T02:10:55.241Z,15.63
2022-11-18T02:13:24.408Z,13.85
2022-11-18T02:16:01.967Z,15.25
2022-11-18T02:18:30.365Z,13.52
2022-11-18T02:21:22.163Z,14.02
2022-11-18T02:24:00.236Z,17.30
2022-11-18T02:26:41.813Z,17.38
2022-11-18T02:29:25.410Z,19.52
2022-11-18T02:32:07.439Z,15.25
2022-11-18T02:34:44.890Z,16.15
2022-11-18T02:37:13.386Z,23.50
2022-11-18T02:40:03.273Z,28.55
2022-11-18T02:42:33.703Z,27.25
2022-11-18T02:45:17.830Z,26.37
2022-11-18T02:47:48.138Z,29.00
2022-11-18T02:50:18.765Z,18.45
2022-11-18T02:52:49.439Z,15.68
2022-11-18T02:55:18.355Z,17.45
2022-11-18T02:57:46.861Z,19.95
2022-11-18T03:00:20.175Z,17.13
2022-11-18T03:02:50.337Z,17.00
2022-11-18T03:05:22.503Z,17.05
2022-11-18T03:07:54.379Z,33.97
2022-11-18T03:10:24.446Z,35.85
2022-11-18T03:13:11.326Z,20.75
2022-11-18T03:15:49.226Z,20.45
2022-11-18T03:18:23.599Z,21.90
2022-11-18T03:20:54.150Z,17.92
2022-11-18T03:23:31.479Z,21.50
2022-11-18T03:26:13.017Z,19.80
2022-11-18T03:28:41.379Z,25.13
2022-11-18T03:31:10.019Z,23.00
2022-11-18T03:33:46.226Z,25.65
2022-11-18T03:36:28.959Z,30.60
2022-11-18T03:38:59.199Z,27.13
2022-11-18T03:41:30.175Z,36.10
2022-11-18T03:44:12.314Z,29.67
2022-11-18T03:46:48.246Z,28.43
2022-11-18T03:49:32.668Z,25.38
2022-11-18T03:52:07.144Z,32.05
2022-11-18T03:54:37.310Z,31.27
2022-11-18T03:57:16.152Z,33.20
2022-11-18T03:59:46.300Z,29.15
2022-11-18T04:02:21.717Z,48.47
2022-11-18T04:04:51.449Z,48.28
2022-11-18T04:07:25.489Z,73.60
2022-11-18T04:10:04.144Z,79.15
2022-11-18T04:12:34.995Z,71.88
2022-11-18T04:15:10.629Z,68.50
2022-11-18T04:17:41.087Z,56.53
2022-11-18T04:20:17.927Z,52.22
2022-11-18T04:22:46.795Z,45.25
2022-11-18T04:25:25.172Z,46.65
2022-11-18T04:27:54.042Z,45.08
2022-11-18T04:30:22.625Z,48.38
2022-11-18T04:33:00.934Z,45.97
2022-11-18T04:35:39.677Z,48.18
2022-11-18T04:38:16.544Z,47.83
2022-11-18T04:40:47.660Z,55.03
2022-11-18T04:43:16.041Z,57.83
2022-11-18T04:45:45.096Z,55.44
2022-11-18T04:48:13.725Z,51.72
2022-11-18T04:50:42.360Z,37.42
2022-11-18T04:53:10.777Z,44.95
2022-11-18T04:55:39.136Z,46.70
2022-11-18T04:58:07.489Z,47.70
2022-11-18T05:00:36.986Z,48.05
2022-11-18T05:03:05.458Z,52.20
2022-11-18T05:05:34.966Z,54.60
2022-11-18T05:08:03.378Z,53.03
2022-11-18T05:10:34.739Z,50.47
2022-11-18T05:13:03.193Z,49.50
2022-11-18T05:15:31.553Z,49.45
2022-11-18T05:18:04.900Z,53.00
2022-11-18T05:20:37.425Z,45.67
2022-11-18T05:23:16.417Z,49.55
2022-11-18T05:25:54.400Z,45.75
2022-11-18T05:28:36.778Z,55.88
2022-11-18T05:31:08.850Z,39.90
2022-11-18T05:33:42.954Z,32.65
2022-11-18T05:36:13.038Z,29.30
2022-11-18T05:38:46.106Z,27.98
2022-11-18T05:41:37.923Z,44.35
2022-11-18T05:44:17.003Z,36.78
2022-11-18T05:46:45.502Z,41.97
2022-11-18T05:49:24.278Z,43.63
2022-11-18T05:51:53.798Z,61.97
2022-11-18T05:54:27.392Z,68.35
2022-11-18T05:56:56.090Z,55.05
2022-11-18T05:59:24.729Z,71.28
2022-11-18T06:01:58.504Z,55.40
2022-11-18T06:04:36.963Z,55.70
2022-11-18T06:07:10.319Z,57.50
2022-11-18T06:09:41.433Z,46.67
2022-11-18T06:12:10.011Z,40.53
2022-11-18T06:14:46.391Z,45.00
2022-11-18T06:17:21.138Z,46.72
2022-11-18T06:20:00.163Z,41.47
2022-11-18T06:22:29.060Z,46.50
2022-11-18T06:24:57.635Z,39.75
2022-11-18T06:27:30.572Z,38.42
2022-11-18T06:29:59.052Z,31.63
2022-11-18T06:32:37.521Z,32.65
2022-11-18T06:35:06.173Z,26.02
2022-11-18T06:37:35.627Z,23.42
2022-11-18T06:40:04.205Z,24.52
2022-11-18T06:42:51.144Z,21.65
2022-11-18T06:45:24.950Z,23.20
2022-11-18T06:47:57.227Z,23.15
2022-11-18T06:50:25.875Z,19.75
2022-11-18T06:52:54.303Z,15.98
2022-11-18T06:55:22.993Z,20.65
2022-11-18T06:57:58.903Z,17.30
2022-11-18T07:00:27.325Z,29.10
2022-11-18T07:03:05.594Z,27.70
2022-11-18T07:05:34.017Z,26.77
2022-11-18T07:08:02.486Z,31.77
2022-11-18T07:10:35.975Z,26.55
2022-11-18T07:13:04.449Z,20.92
2022-11-18T07:15:42.841Z,25.17
2022-11-18T07:18:11.328Z,23.75
2022-11-18T07:20:39.630Z,23.10
2022-11-18T07:23:08.068Z,25.38
2022-11-18T07:25:41.251Z,28.55
2022-11-18T07:28:12.439Z,41.47
2022-11-18T07:30:42.035Z,51.75
2022-11-18T07:33:10.420Z,33.03
2022-11-18T07:35:44.226Z,23.20
2022-11-18T07:38:12.596Z,20.55
2022-11-18T07:40:41.081Z,20.17
2022-11-18T07:43:09.711Z,16.42
2022-11-18T07:45:41.305Z,18.30
2022-11-18T07:48:09.641Z,12.68
2022-11-18T07:50:39.403Z,11.90
2022-11-18T07:53:09.431Z,12.63
2022-11-18T07:55:37.992Z,16.25
2022-11-18T07:58:06.968Z,13.70
2022-11-18T08:00:37.772Z,15.02
2022-11-18T08:03:08.022Z,14.52
2022-11-18T08:05:38.548Z,12.35
2022-11-18T08:08:07.485Z,11.60
2022-11-18T08:10:45.985Z,12.40
2022-11-18T08:13:14.450Z,10.63
2022-11-18T08:15:43.385Z,11.82
2022-11-18T08:18:13.814Z,13.30
2022-11-18T08:20:42.481Z,20.13
2022-11-18T08:23:10.998Z,14.73
2022-11-18T08:25:49.507Z,14.68
2022-11-18T08:28:22.982Z,15.13
2022-11-18T08:30:51.704Z,14.52
2022-11-18T08:33:30.323Z,12.73
2022-11-18T08:35:58.738Z,14.65
2022-11-18T08:38:27.217Z,14.10
2022-11-18T08:41:07.679Z,16.30
2022-11-18T08:43:36.952Z,14.35
2022-11-18T08:46:05.365Z,13.55
2022-11-18T08:48:38.809Z,13.30
2022-11-18T08:51:10.134Z,14.48
2022-11-18T08:53:38.616Z,13.43
2022-11-18T08:56:07.278Z,12.45
2022-11-18T08:58:35.708Z,17.67
2022-11-18T09:01:07.432Z,15.40
2022-11-18T09:03:36.405Z,13.50
2022-11-18T09:06:18.434Z,15.35
2022-11-18T09:08:47.124Z,15.68
2022-11-18T09:11:16.782Z,16.20
2022-11-18T09:16:47.070Z,14.48
2022-11-18T09:22:06.211Z,15.55
2022-11-18T09:24:41.258Z,14.50
2022-11-18T09:27:17.269Z,19.20
2022-11-18T09:29:46.538Z,18.35
2022-11-18T09:32:20.367Z,20.02
2022-11-18T09:34:49.251Z,14.05
2022-11-18T09:37:23.500Z,16.58
2022-11-18T09:39:51.949Z,18.35
2022-11-18T09:42:41.747Z,20.65
2022-11-18T09:45:13.497Z,16.42
2022-11-18T09:47:48.833Z,19.08
2022-11-18T09:53:23.133Z,21.02
2022-11-18T09:55:52.421Z,20.45
2022-11-18T09:58:33.289Z,19.65
2022-11-18T10:01:18.541Z,18.15
2022-11-18T10:03:52.284Z,17.73
2022-11-18T10:06:23.685Z,14.82
2022-11-18T10:08:52.388Z,12.95
2022-11-18T10:11:24.030Z,11.77
2022-11-18T10:14:02.057Z,14.15
2022-11-18T10:16:49.531Z,14.13
2022-11-18T10:19:19.258Z,11.30
2022-11-18T10:21:56.823Z,13.77
2022-11-18T10:24:38.032Z,13.27
2022-11-18T10:27:10.806Z,10.02
2022-11-18T10:29:39.260Z,14.23
2022-11-18T10:32:14.864Z,16.65
2022-11-18T10:34:53.861Z,14.15
2022-11-18T10:40:26.376Z,11.63
2022-11-18T10:42:55.159Z,14.35
2022-11-18T10:45:33.992Z,13.77
2022-11-18T10:48:07.464Z,14.75
2022-11-18T10:50:39.389Z,12.40
2022-11-18T10:53:34.147Z,13.77
2022-11-18T10:56:13.882Z,12.30
2022-11-18T10:58:51.865Z,15.93
2022-11-18T11:01:20.322Z,13.63
2022-11-18T11:03:57.962Z,15.07
2022-11-18T11:06:31.668Z,14.70
2022-11-18T11:09:07.177Z,15.30
2022-11-18T11:11:35.614Z,118.82
2022-11-18T11:14:16.894Z,44.55
2022-11-18T11:20:15.315Z,14.20
2022-11-18T11:22:49.121Z,14.07
2022-11-18T11:25:19.576Z,13.73
2022-11-18T11:28:14.957Z,13.38
2022-11-18T11:31:10.365Z,11.52
2022-11-18T11:33:42.435Z,14.25
2022-11-18T11:36:17.841Z,69.40
2022-11-18T11:39:04.229Z,36.00
2022-11-18T11:41:39.405Z,17.17
2022-11-18T11:44:15.058Z,175.25
2022-11-18T11:47:15.020Z,38.25
2022-11-18T11:49:49.881Z,21.55
2022-11-18T11:52:43.775Z,30.08
2022-11-18T11:55:20.621Z,19.52
2022-11-18T11:57:55.749Z,16.38
2022-11-18T12:00:30.245Z,19.38
2022-11-18T12:03:36.970Z,17.40
2022-11-18T12:06:11.315Z,21.58
2022-11-18T12:08:49.597Z,19.00
2022-11-18T12:11:17.986Z,22.27
2022-11-18T12:14:11.416Z,20.83
2022-11-18T12:16:45.922Z,23.77
2022-11-18T12:19:15.947Z,24.40
2022-11-18T12:21:45.311Z,24.25
2022-11-18T12:24:18.231Z,22.88
2022-11-18T12:26:47.637Z,24.00
2022-11-18T12:29:20.604Z,24.60
2022-11-18T12:31:52.216Z,32.95
2022-11-18T12:34:26.055Z,41.15
2022-11-18T12:36:54.833Z,63.03
2022-11-18T12:39:23.211Z,57.67
2022-11-18T12:42:24.260Z,53.78
2022-11-18T12:47:40.376Z,54.53
2022-11-18T12:50:12.433Z,76.55
2022-11-18T12:52:42.730Z,210.43
2022-11-18T12:55:17.403Z,168.13
2022-11-18T12:57:50.655Z,142.25
2022-11-18T13:00:23.358Z,154.32
2022-11-18T13:03:01.615Z,110.68
2022-11-18T13:05:34.327Z,90.03
2022-11-18T13:08:17.467Z,89.82
2022-11-18T13:11:13.552Z,88.16
2022-11-18T13:13:42.811Z,95.63
2022-11-18T13:16:41.685Z,105.28
2022-11-18T13:19:21.360Z,120.18
2022-11-18T13:22:17.537Z,323.80
2022-11-18T13:24:50.130Z,156.20
2022-11-18T13:30:47.644Z,172.23
2022-11-18T13:33:20.146Z,136.18
2022-11-18T13:35:48.512Z,144.40
2022-11-18T13:38:28.387Z,143.48
2022-11-18T13:41:08.364Z,86.60
2022-11-18T13:43:36.737Z,86.35
2022-11-18T13:46:07.551Z,63.72
2022-11-18T13:48:38.283Z,64.93
2022-11-18T13:51:12.531Z,54.20
2022-11-18T13:53:41.533Z,52.30
2022-11-18T13:56:34.532Z,48.67
2022-11-18T13:59:18.802Z,45.13
2022-11-18T14:01:54.599Z,48.35
2022-11-18T14:04:24.299Z,48.00
2022-11-18T14:06:54.499Z,46.88
2022-11-18T14:09:32.121Z,45.33
2022-11-18T14:12:00.775Z,47.10
2022-11-18T14:14:40.463Z,48.33
2022-11-18T14:17:28.195Z,53.45
2022-11-18T14:20:02.044Z,51.70
2022-11-18T14:22:31.679Z,45.70
2022-11-18T14:25:16.372Z,56.53
2022-11-18T14:27:49.711Z,69.28
2022-11-18T14:30:27.637Z,62.10
2022-11-18T14:33:14.130Z,72.65
2022-11-18T14:35:58.807Z,68.70
2022-11-18T14:41:44.935Z,77.30
2022-11-18T14:44:19.901Z,72.53
2022-11-18T14:46:50.112Z,74.20
2022-11-18T14:49:28.063Z,70.05
2022-11-18T14:51:56.584Z,68.32
2022-11-18T14:54:30.354Z,64.88
2022-11-18T14:57:01.556Z,62.08
2022-11-18T14:59:30.258Z,50.40
2022-11-18T15:02:04.175Z,45.80
2022-11-18T15:04:41.655Z,46.08
2022-11-18T15:07:23.507Z,39.25
2022-11-18T15:09:52.856Z,34.80
2022-11-18T15:12:31.234Z,44.23
2022-11-18T15:15:00.085Z,34.08
2022-11-18T15:17:30.075Z,33.33
2022-11-18T15:20:04.783Z,32.47
2022-11-18T15:22:34.359Z,34.50
2022-11-18T15:25:03.505Z,37.03
2022-11-18T15:27:31.925Z,44.25
2022-11-18T15:30:01.802Z,38.05
2022-11-18T15:32:35.890Z,36.30
2022-11-18T15:35:05.211Z,38.92
2022-11-18T15:37:34.477Z,41.70
2022-11-18T15:40:02.925Z,35.42
2022-11-18T15:42:50.362Z,35.50
2022-11-18T15:45:20.080Z,45.13
2022-11-18T15:47:56.403Z,36.33
2022-11-18T15:50:29.900Z,34.88
2022-11-18T15:52:58.284Z,37.50
2022-11-18T15:55:26.658Z,35.67
2022-11-18T15:57:55.144Z,38.95
2022-11-18T16:00:23.688Z,40.90
2022-11-18T16:02:53.269Z,36.70
2022-11-18T16:05:21.687Z,38.85
2022-11-18T16:07:54.673Z,42.55
2022-11-18T16:10:41.848Z,41.40
2022-11-18T16:13:10.271Z,39.72
2022-11-18T16:15:44.286Z,35.63
2022-11-18T16:18:12.694Z,37.25
2022-11-18T16:20:57.520Z,28.13
2022-11-18T16:23:27.046Z,33.08
2022-11-18T16:25:56.048Z,34.65
2022-11-18T16:28:24.426Z,29.60
2022-11-18T16:31:11.374Z,34.38
2022-11-18T16:33:43.455Z,42.00
2022-11-18T16:36:15.259Z,43.88
2022-11-18T16:38:43.754Z,44.00
2022-11-18T16:41:30.690Z,37.33
2022-11-18T16:44:05.544Z,39.28
2022-11-18T16:46:36.913Z,38.90
2022-11-18T16:49:06.099Z,34.72
2022-11-18T16:51:35.417Z,31.20
2022-11-18T16:54:07.304Z,39.35
2022-11-18T16:56:38.001Z,40.75
2022-11-18T16:59:14.248Z,38.63
2022-11-18T17:01:43.504Z,38.20
2022-11-18T17:04:21.007Z,41.83
2022-11-18T17:06:50.611Z,36.40
2022-11-18T17:09:20.260Z,40.17
2022-11-18T17:11:49.415Z,38.40
2022-11-18T17:14:17.812Z,41.92
2022-11-18T17:16:56.596Z,35.92
2022-11-18T17:19:35.053Z,42.28
2022-11-18T17:22:03.584Z,46.28
2022-11-18T17:24:32.043Z,40.13
2022-11-18T17:27:00.494Z,38.78
2022-11-18T17:29:31.629Z,35.90
2022-11-18T17:32:00.286Z,40.65
2022-11-18T17:34:28.849Z,39.58
2022-11-18T17:37:03.146Z,42.05
2022-11-18T17:39:35.079Z,44.80
2022-11-18T17:42:15.439Z,45.50
2022-11-18T17:44:44.357Z,50.40
2022-11-18T17:47:12.823Z,51.83
2022-11-18T17:49:41.416Z,49.50
2022-11-18T17:52:11.870Z,50.67
2022-11-18T17:54:40.271Z,49.90
2022-11-18T17:57:08.628Z,44.42
2022-11-18T17:59:37.111Z,42.97
2022-11-18T18:02:15.818Z,41.15
2022-11-18T18:04:44.271Z,43.78
2022-11-18T18:07:12.771Z,47.75
2022-11-18T18:09:41.515Z,37.25
2022-11-18T18:12:28.438Z,45.70
2022-11-18T18:15:02.467Z,45.75
2022-11-18T18:17:31.910Z,49.85
2022-11-18T18:20:00.279Z,59.30
2022-11-18T18:22:38.809Z,43.13
2022-11-18T18:25:17.407Z,46.08
2022-11-18T18:27:50.646Z,45.55
2022-11-18T18:30:19.095Z,42.15
2022-11-18T18:32:57.656Z,39.30
2022-11-18T18:35:26.641Z,46.45
2022-11-18T18:37:55.165Z,61.22
2022-11-18T18:40:23.492Z,43.90
2022-11-18T18:42:57.465Z,45.17
2022-11-18T18:45:44.412Z,38.08
2022-11-18T18:48:12.835Z,38.40
2022-11-18T18:50:46.069Z,36.22
2022-11-18T18:53:24.246Z,40.30
2022-11-18T18:55:56.234Z,39.85
2022-11-18T18:58:24.669Z,44.28
2022-11-18T19:00:57.928Z,48.30
2022-11-18T19:03:26.681Z,50.05
2022-11-18T19:06:27.329Z,47.58
2022-11-18T19:08:43.893Z,49.03
2022-11-18T19:11:40.448Z,50.58
2022-11-18T19:14:10.474Z,54.35
2022-11-18T19:16:49.518Z,51.53
2022-11-18T19:19:19.334Z,53.08
2022-11-18T19:21:50.307Z,50.58
2022-11-18T19:24:47.672Z,52.03
2022-11-18T19:27:12.187Z,50.25
2022-11-18T19:29:50.626Z,48.20
2022-11-18T19:32:24.522Z,51.85
2022-11-18T19:34:57.963Z,48.55
2022-11-18T19:37:26.682Z,49.20
2022-11-18T19:40:08.984Z,46.30
2022-11-18T19:42:39.968Z,45.03
2022-11-18T19:45:09.904Z,47.17
2022-11-18T19:47:38.363Z,41.25
2022-11-18T19:50:16.906Z,41.15
2022-11-18T19:52:50.775Z,39.85
2022-11-18T19:55:24.048Z,40.28
2022-11-18T19:58:02.549Z,42.97
2022-11-18T20:00:41.148Z,38.70
2022-11-18T20:03:09.873Z,36.92
2022-11-18T20:05:53.387Z,25.83
2022-11-18T20:08:26.892Z,24.52
2022-11-18T20:10:55.370Z,20.38
2022-11-18T20:13:23.686Z,21.77
2022-11-18T20:15:53.347Z,21.15
2022-11-18T20:18:27.409Z,20.85
2022-11-18T20:21:07.857Z,18.52
2022-11-18T20:23:36.916Z,23.60
2022-11-18T20:26:11.366Z,17.48
2022-11-18T20:28:40.988Z,19.35
2022-11-18T20:31:20.371Z,17.70
2022-11-18T20:33:56.031Z,20.50
2022-11-18T20:36:34.245Z,20.85
2022-11-18T20:39:12.798Z,18.85
2022-11-18T20:41:41.200Z,16.17
2022-11-18T20:44:09.630Z,16.95
2022-11-18T20:46:37.999Z,19.75
2022-11-18T20:49:06.387Z,22.35
2022-11-18T20:51:34.714Z,19.17
2022-11-18T20:54:08.040Z,19.48
2022-11-18T20:56:36.542Z,15.90
2022-11-18T20:59:07.801Z,18.85
2022-11-18T21:01:36.285Z,18.92
2022-11-18T21:04:11.229Z,18.27
2022-11-18T21:06:39.639Z,19.02
2022-11-18T21:09:08.526Z,21.10
2022-11-18T21:11:37.470Z,16.65
2022-11-18T21:14:23.314Z,16.80
2022-11-18T21:16:58.325Z,20.25
2022-11-18T21:19:27.230Z,18.58
2022-11-18T21:21:56.296Z,16.85
2022-11-18T21:24:27.919Z,16.23
2022-11-18T21:26:57.114Z,25.90
2022-11-18T21:29:26.529Z,17.73
2022-11-18T21:31:54.973Z,17.38
2022-11-18T21:34:23.428Z,18.27
2022-11-18T21:36:54.882Z,21.23
2022-11-18T21:39:24.827Z,22.70
2022-11-18T21:41:56.609Z,24.77
2022-11-18T21:44:28.575Z,24.60
2022-11-18T21:46:57.963Z,28.02
2022-11-18T21:49:26.337Z,24.58
2022-11-18T21:51:54.663Z,31.52
2022-11-18T21:54:23.079Z,21.83
2022-11-18T21:56:51.507Z,22.98
2022-11-18T21:59:24.860Z,22.67
2022-11-18T22:01:53.269Z,22.92
2022-11-18T22:04:40.096Z,20.02
2022-11-18T22:07:08.462Z,22.23
2022-11-18T22:09:41.831Z,23.08
2022-11-18T22:12:16.508Z,19.92
2022-11-18T22:14:44.977Z,17.70
2022-11-18T22:17:23.289Z,22.17
2022-11-18T22:19:51.678Z,21.42
2022-11-18T22:22:30.031Z,15.57
2022-11-18T22:24:58.600Z,21.15
2022-11-18T22:27:27.385Z,18.60
2022-11-18T22:29:55.835Z,18.55
2022-11-18T22:32:24.374Z,19.17
2022-11-18T22:34:52.757Z,19.05
2022-11-18T22:37:31.369Z,24.00
2022-11-18T22:40:10.132Z,19.17
2022-11-18T22:42:49.821Z,25.05
2022-11-18T22:45:28.306Z,21.92
2022-11-18T22:47:56.638Z,26.05
2022-11-18T22:50:29.704Z,19.15
2022-11-18T22:53:03.388Z,21.70
2022-11-18T22:55:31.686Z,21.45
2022-11-18T22:57:59.920Z,21.83
2022-11-18T23:00:28.220Z,20.40
2022-11-18T23:03:01.921Z,19.25
2022-11-18T23:05:30.310Z,19.40
2022-11-18T23:07:58.728Z,15.90
2022-11-18T23:10:27.099Z,20.45
2022-11-18T23:13:23.919Z,21.88
2022-11-18T23:15:52.299Z,20.90
2022-11-18T23:18:20.677Z,24.23
2022-11-18T23:20:49.075Z,25.15
2022-11-18T23:23:17.403Z,23.23
2022-11-18T23:25:45.740Z,25.27
2022-11-18T23:28:14.054Z,23.25
2022-11-18T23:30:42.476Z,20.23
2022-11-18T23:33:10.803Z,16.60
2022-11-18T23:35:39.194Z,17.70
2022-11-18T23:38:07.500Z,15.30
2022-11-18T23:40:35.813Z,14.82
2022-11-18T23:43:09.348Z,18.98
2022-11-18T23:45:37.750Z,15.98
2022-11-18T23:48:06.205Z,16.30
2022-11-18T23:50:39.092Z,16.17
2022-11-18T23:53:13.512Z,16.05
2022-11-18T23:55:41.894Z,14.68
2022-11-18T23:58:10.311Z,16.98
